Time;durP1;ratioP1;P1;durP2;ratioP2;P2;SDS_P1;SDS_P2;PMS_P1;PMS_P2;Temp;Humidity;BMP_temperature;BMP_pressure;BME280_temperature;BME280_humidity;BME280_pressure;Samples;Min_cycle;Max_cycle;Signal;HPM_P1;HPM_P2
2021/08/22 00:01:22;;;;;;;3.20;2.28;;;18.70;94.00;;;;;;5091026;28;20093;-73
2021/08/22 00:03:48;;;;;;;4.55;2.00;;;18.80;93.70;;;;;;5090737;28;20408;-70
2021/08/22 00:06:13;;;;;;;3.60;1.92;;;18.80;93.50;;;;;;5072881;28;20430;-70
2021/08/22 00:08:40;;;;;;;6.15;2.67;;;18.90;93.30;;;;;;5091044;28;20078;-69
2021/08/22 00:11:06;;;;;;;3.97;2.38;;;18.90;93.10;;;;;;5090984;28;20028;-70
2021/08/22 00:13:32;;;;;;;3.30;2.15;;;19.00;93.10;;;;;;5090859;28;20038;-70
2021/08/22 00:15:58;;;;;;;4.53;2.05;;;19.00;92.90;;;;;;5072702;28;20021;-69
2021/08/22 00:18:24;;;;;;;2.83;2.22;;;19.10;92.90;;;;;;5090704;28;20165;-70
2021/08/22 00:20:49;;;;;;;3.28;2.08;;;19.10;92.90;;;;;;5090664;28;20477;-70
2021/08/22 00:23:15;;;;;;;5.07;2.80;;;19.10;92.80;;;;;;5090757;28;20051;-70
2021/08/22 00:25:40;;;;;;;4.15;2.50;;;19.10;92.80;;;;;;5090650;28;20472;-70
2021/08/22 00:28:06;;;;;;;3.72;2.47;;;19.00;92.80;;;;;;5090724;28;20396;-70
2021/08/22 00:30:32;;;;;;;3.88;2.38;;;19.00;92.70;;;;;;5090845;28;20111;-70
2021/08/22 00:32:57;;;;;;;6.82;2.58;;;19.00;92.80;;;;;;5090396;28;20028;-70
2021/08/22 00:35:23;;;;;;;5.03;2.15;;;19.00;92.80;;;;;;5090573;28;20038;-70
2021/08/22 00:37:48;;;;;;;3.60;2.40;;;19.00;92.80;;;;;;5072215;28;20458;-71
2021/08/22 00:40:14;;;;;;;6.22;2.50;;;18.90;92.70;;;;;;5090536;28;20028;-70
2021/08/22 00:42:40;;;;;;;2.90;2.47;;;18.90;92.80;;;;;;5090332;28;20020;-70
2021/08/22 00:45:07;;;;;;;5.22;2.58;;;18.90;92.80;;;;;;5090482;28;20028;-70
2021/08/22 00:47:35;;;;;;;3.30;2.50;;;18.90;92.80;;;;;;5090299;28;20020;-70
2021/08/22 00:50:01;;;;;;;8.48;2.60;;;18.80;93.00;;;;;;5090142;28;20107;-70
2021/08/22 00:52:32;;;;;;;4.43;2.53;;;18.80;93.00;;;;;;5090253;28;20102;-70
2021/08/22 00:54:58;;;;;;;4.60;2.67;;;18.80;92.90;;;;;;5089904;28;20442;-69
2021/08/22 00:57:24;;;;;;;5.82;2.85;;;18.80;92.80;;;;;;5072090;28;20081;-70
2021/08/22 00:59:50;;;;;;;3.63;2.65;;;18.90;92.90;;;;;;5089984;28;20040;-70
2021/08/22 01:02:28;;;;;;;4.20;2.90;;;18.90;92.40;;;;;;5071754;28;20115;-70
2021/08/22 01:05:07;;;;;;;5.55;3.03;;;19.00;92.30;;;;;;5089894;28;20081;-69
2021/08/22 01:07:56;;;;;;;3.67;2.50;;;19.00;92.20;;;;;;5089775;28;20036;-69
2021/08/22 01:10:25;;;;;;;4.05;2.50;;;19.00;92.10;;;;;;5089852;28;20032;-69
2021/08/22 01:13:08;;;;;;;3.55;2.40;;;19.00;92.20;;;;;;5089627;28;20051;-70
2021/08/22 01:15:36;;;;;;;4.75;2.60;;;18.90;92.40;;;;;;5089718;28;20496;-69
2021/08/22 01:18:05;;;;;;;4.18;2.45;;;18.90;92.50;;;;;;5089797;28;20416;-70
2021/08/22 01:20:55;;;;;;;3.47;2.50;;;18.80;92.60;;;;;;5089739;28;20024;-70
2021/08/22 01:23:23;;;;;;;4.50;2.58;;;18.80;92.70;;;;;;5089711;28;20016;-70
2021/08/22 01:25:49;;;;;;;3.92;2.33;;;18.70;92.70;;;;;;5089602;28;20559;-70
2021/08/22 01:28:15;;;;;;;5.40;2.58;;;18.70;92.80;;;;;;5071478;28;20046;-70
2021/08/22 01:30:45;;;;;;;3.05;2.03;;;18.70;92.80;;;;;;5089495;28;20507;-69
2021/08/22 01:33:13;;;;;;;4.35;2.78;;;18.70;92.90;;;;;;5089479;28;20058;-70
2021/08/22 01:35:40;;;;;;;4.47;2.65;;;18.70;92.80;;;;;;5089449;28;20028;-69
2021/08/22 01:38:07;;;;;;;3.58;2.38;;;18.70;92.80;;;;;;5089532;28;20115;-70
2021/08/22 01:40:34;;;;;;;6.22;2.30;;;18.70;92.70;;;;;;5089580;28;20040;-70
2021/08/22 01:43:00;;;;;;;5.22;2.40;;;18.70;92.70;;;;;;5070758;28;20050;-70
2021/08/22 01:45:27;;;;;;;3.92;2.80;;;18.60;92.90;;;;;;5089361;28;20082;-70
2021/08/22 01:47:52;;;;;;;3.22;2.35;;;18.60;93.10;;;;;;5089410;28;20020;-70
2021/08/22 01:50:22;;;;;;;4.95;2.67;;;18.50;93.30;;;;;;5071097;28;20035;-69
2021/08/22 01:52:51;;;;;;;5.72;3.22;;;18.40;93.50;;;;;;5089031;28;20092;-70
2021/08/22 01:55:17;;;;;;;5.25;2.92;;;18.40;93.60;;;;;;5089627;28;20035;-68
2021/08/22 01:57:44;;;;;;;5.13;2.63;;;18.40;93.80;;;;;;5089076;28;20024;-70
2021/08/22 02:00:11;;;;;;;4.18;2.88;;;18.40;93.60;;;;;;5089093;28;20030;-70
2021/08/22 02:02:44;;;;;;;5.65;2.88;;;18.40;93.60;;;;;;5089503;28;20030;-69
2021/08/22 02:05:12;;;;;;;7.55;2.97;;;18.50;93.30;;;;;;5089100;28;20058;-70
2021/08/22 02:07:38;;;;;;;4.03;3.13;;;18.60;92.90;;;;;;5088872;28;20031;-69
2021/08/22 02:10:07;;;;;;;4.60;3.38;;;18.70;93.00;;;;;;5070685;28;20035;-69
2021/08/22 02:12:34;;;;;;;3.28;2.40;;;18.80;92.90;;;;;;5089020;28;20097;-70
2021/08/22 02:15:23;;;;;;;4.35;2.70;;;18.70;92.80;;;;;;5088599;28;20052;-69
2021/08/22 02:17:53;;;;;;;7.75;2.70;;;18.70;92.80;;;;;;5088482;28;20027;-70
2021/08/22 02:20:20;;;;;;;6.03;2.47;;;18.60;92.90;;;;;;5088669;28;20040;-70
2021/08/22 02:22:46;;;;;;;4.72;2.95;;;18.60;93.30;;;;;;5088465;28;20024;-69
2021/08/22 02:25:13;;;;;;;4.32;2.75;;;18.50;93.50;;;;;;5088238;28;20028;-70
2021/08/22 02:27:40;;;;;;;4.10;3.03;;;18.40;93.60;;;;;;5070809;28;20030;-69
2021/08/22 02:30:07;;;;;;;8.38;2.97;;;18.30;93.80;;;;;;5070816;28;20040;-70
2021/08/22 02:32:33;;;;;;;4.88;3.15;;;18.30;94.00;;;;;;5088310;28;20482;-69
2021/08/22 02:34:59;;;;;;;4.38;3.03;;;18.30;94.20;;;;;;5088085;28;20024;-69
2021/08/22 02:37:24;;;;;;;3.67;2.63;;;18.20;94.20;;;;;;5088357;28;20104;-69
2021/08/22 02:39:50;;;;;;;6.32;3.00;;;18.30;94.40;;;;;;5070248;28;20036;-70
2021/08/22 02:42:17;;;;;;;3.67;2.65;;;18.30;94.30;;;;;;5088355;28;20032;-70
2021/08/22 02:44:44;;;;;;;7.60;2.72;;;18.30;94.40;;;;;;5088412;28;20039;-70
2021/08/22 02:47:10;;;;;;;4.35;2.60;;;18.20;94.60;;;;;;5088500;28;20058;-70
2021/08/22 02:49:36;;;;;;;3.92;2.63;;;18.10;94.80;;;;;;5088313;28;20035;-70
2021/08/22 02:52:01;;;;;;;4.07;2.50;;;18.00;95.10;;;;;;5088402;28;20028;-70
2021/08/22 02:54:27;;;;;;;3.22;2.55;;;18.00;95.20;;;;;;5088429;28;20024;-70
2021/08/22 02:56:53;;;;;;;4.63;2.28;;;17.90;95.40;;;;;;5088514;28;20024;-69
2021/08/22 02:59:18;;;;;;;8.20;2.85;;;17.90;95.50;;;;;;5088566;28;20111;-69
2021/08/22 03:01:44;;;;;;;4.78;3.20;;;17.80;95.70;;;;;;5088640;28;20530;-69
2021/08/22 03:04:10;;;;;;;5.28;2.88;;;17.80;95.90;;;;;;5088114;28;20032;-69
2021/08/22 03:06:35;;;;;;;5.50;3.10;;;17.70;96.10;;;;;;5070348;28;20024;-70
2021/08/22 03:09:03;;;;;;;3.00;2.05;;;17.70;96.20;;;;;;5088237;28;20119;-69
2021/08/22 03:11:30;;;;;;;7.47;3.35;;;17.70;96.10;;;;;;5088185;28;20107;-69
2021/08/22 03:13:56;;;;;;;6.75;3.03;;;17.70;96.00;;;;;;5070050;28;20028;-70
2021/08/22 03:16:21;;;;;;;4.93;2.83;;;17.80;95.70;;;;;;5070052;28;20035;-70
2021/08/22 03:18:47;;;;;;;4.15;2.97;;;17.80;95.40;;;;;;5087838;28;20052;-70
2021/08/22 03:21:13;;;;;;;3.67;2.47;;;17.90;95.40;;;;;;5070095;28;20114;-70
2021/08/22 03:23:38;;;;;;;5.65;2.80;;;17.90;95.50;;;;;;5088185;28;20028;-69
2021/08/22 03:26:04;;;;;;;8.65;3.30;;;17.90;95.70;;;;;;5087976;28;20406;-70
2021/08/22 03:28:30;;;;;;;5.93;2.65;;;17.80;95.90;;;;;;5070053;28;20571;-70
2021/08/22 03:30:55;;;;;;;4.97;3.17;;;17.70;96.30;;;;;;5087667;28;20032;-69
2021/08/22 03:33:21;;;;;;;4.70;2.85;;;17.50;96.60;;;;;;5087795;28;20032;-69
2021/08/22 03:35:48;;;;;;;6.65;2.65;;;17.40;96.90;;;;;;5087964;28;20043;-70
2021/08/22 03:38:13;;;;;;;7.78;2.92;;;17.40;97.20;;;;;;5089848;28;20024;-69
2021/08/22 03:40:39;;;;;;;5.78;3.40;;;17.30;97.50;;;;;;5091598;28;20047;-70
2021/08/22 03:43:05;;;;;;;6.05;3.15;;;17.30;97.40;;;;;;5091446;28;20020;-69
2021/08/22 03:45:31;;;;;;;4.20;3.13;;;17.30;97.30;;;;;;5091479;28;20074;-70
2021/08/22 03:47:57;;;;;;;5.03;3.35;;;17.40;97.30;;;;;;5091405;28;20463;-69
2021/08/22 03:50:22;;;;;;;3.63;2.80;;;17.30;97.30;;;;;;5091457;28;20036;-69
2021/08/22 03:52:51;;;;;;;5.45;2.75;;;17.30;97.20;;;;;;5091286;28;20054;-69
2021/08/22 03:55:17;;;;;;;7.78;2.78;;;17.30;97.20;;;;;;5091608;28;20081;-70
2021/08/22 03:57:42;;;;;;;4.50;2.53;;;17.30;97.20;;;;;;5091125;28;20032;-69
2021/08/22 04:00:09;;;;;;;8.50;3.10;;;17.30;97.40;;;;;;5091245;28;20047;-69
2021/08/22 04:02:34;;;;;;;3.92;2.88;;;17.20;97.60;;;;;;5091099;28;20038;-70
2021/08/22 04:05:01;;;;;;;8.80;2.97;;;17.30;97.70;;;;;;5091302;28;20504;-69
2021/08/22 04:07:28;;;;;;;4.43;2.95;;;17.30;97.70;;;;;;5091096;28;20065;-70
2021/08/22 04:09:55;;;;;;;5.78;2.70;;;17.30;97.70;;;;;;5091096;28;20028;-69
2021/08/22 04:12:21;;;;;;;10.23;2.92;;;17.30;97.70;;;;;;5091142;28;20392;-70
2021/08/22 04:14:46;;;;;;;4.80;3.30;;;17.40;97.70;;;;;;5090851;28;20107;-69
2021/08/22 04:17:12;;;;;;;5.97;3.30;;;17.40;97.80;;;;;;5091009;28;20107;-70
2021/08/22 04:19:41;;;;;;;5.15;3.17;;;17.50;97.70;;;;;;5072665;28;20051;-70
2021/08/22 04:22:07;;;;;;;6.25;3.25;;;17.50;97.50;;;;;;5073096;28;20026;-69
2021/08/22 04:24:35;;;;;;;6.18;3.13;;;17.60;97.40;;;;;;5090838;28;20028;-70
2021/08/22 04:27:02;;;;;;;6.88;3.30;;;17.70;97.40;;;;;;5090457;28;20411;-70
2021/08/22 04:29:28;;;;;;;5.63;3.13;;;17.80;97.30;;;;;;5090671;28;20027;-68
2021/08/22 04:31:54;;;;;;;4.68;3.05;;;17.90;97.10;;;;;;5090164;28;20035;-69
2021/08/22 04:34:20;;;;;;;6.13;2.95;;;17.90;97.00;;;;;;5090365;28;20031;-70
2021/08/22 04:36:47;;;;;;;5.65;3.00;;;18.00;96.90;;;;;;5090297;28;20031;-70
2021/08/22 04:39:13;;;;;;;4.95;2.92;;;18.00;96.80;;;;;;5072318;28;20081;-69
2021/08/22 04:41:42;;;;;;;5.78;3.08;;;18.10;96.80;;;;;;5090710;28;20028;-70
2021/08/22 04:44:08;;;;;;;6.63;3.25;;;18.10;96.80;;;;;;5072560;28;20031;-70
2021/08/22 04:46:34;;;;;;;12.23;3.40;;;18.20;96.70;;;;;;5090492;28;20068;-69
2021/08/22 04:48:59;;;;;;;7.85;3.03;;;18.30;96.60;;;;;;5089808;28;20488;-70
2021/08/22 04:51:25;;;;;;;11.50;3.75;;;18.50;96.40;;;;;;5090459;28;20042;-68
2021/08/22 04:53:51;;;;;;;8.48;3.17;;;18.60;96.10;;;;;;5090367;28;20026;-69
2021/08/22 04:56:17;;;;;;;8.32;3.38;;;18.70;95.90;;;;;;5072203;28;20066;-68
2021/08/22 04:58:42;;;;;;;11.77;3.70;;;18.90;95.70;;;;;;5071789;28;20507;-68
2021/08/22 05:01:08;;;;;;;5.78;2.95;;;19.00;95.40;;;;;;5071646;28;20522;-70
2021/08/22 05:03:34;;;;;;;9.85;3.30;;;19.20;95.30;;;;;;5090110;28;20024;-69
2021/08/22 05:05:59;;;;;;;5.63;2.85;;;19.40;95.10;;;;;;5089798;28;20031;-71
2021/08/22 05:08:25;;;;;;;7.07;3.40;;;19.50;94.70;;;;;;5089912;28;20036;-69
2021/08/22 05:10:54;;;;;;;7.13;3.05;;;19.80;94.30;;;;;;5089788;28;20028;-70
2021/08/22 05:13:20;;;;;;;7.82;3.10;;;20.00;93.90;;;;;;5089727;28;20105;-67
2021/08/22 05:15:46;;;;;;;6.03;3.17;;;20.20;93.30;;;;;;5089846;28;20492;-69
2021/08/22 05:18:11;;;;;;;5.50;3.00;;;20.50;92.80;;;;;;5089575;28;20512;-69
2021/08/22 05:20:37;;;;;;;4.75;2.70;;;20.80;92.10;;;;;;5071573;28;20016;-68
2021/08/22 05:23:03;;;;;;;5.35;2.88;;;21.00;91.40;;;;;;5071411;28;20170;-70
2021/08/22 05:25:28;;;;;;;3.70;2.65;;;21.20;90.70;;;;;;5089404;28;20031;-70
2021/08/22 05:27:54;;;;;;;9.18;3.67;;;21.40;90.40;;;;;;5071357;28;20031;-70
2021/08/22 05:30:20;;;;;;;6.38;3.10;;;21.70;89.80;;;;;;5071120;28;20089;-70
2021/08/22 05:32:45;;;;;;;5.78;3.17;;;21.80;89.70;;;;;;5089104;28;20040;-70
2021/08/22 05:35:11;;;;;;;4.28;2.65;;;22.00;88.40;;;;;;5089257;28;20028;-70
2021/08/22 05:37:36;;;;;;;4.32;3.30;;;22.20;87.20;;;;;;5089317;28;20024;-70
2021/08/22 05:40:03;;;;;;;5.55;3.00;;;22.40;86.00;;;;;;5089149;28;20024;-70
2021/08/22 05:42:28;;;;;;;9.88;3.00;;;22.70;83.30;;;;;;5088986;28;20024;-70
2021/08/22 05:44:54;;;;;;;5.70;3.58;;;22.80;82.90;;;;;;5088994;28;20032;-70
2021/08/22 05:47:20;;;;;;;6.18;2.65;;;23.10;82.20;;;;;;5089085;28;20020;-69
2021/08/22 05:49:47;;;;;;;4.72;3.10;;;23.20;82.00;;;;;;5089086;28;20435;-71
2021/08/22 05:52:13;;;;;;;6.47;3.17;;;23.60;79.60;;;;;;5088917;28;20107;-71
2021/08/22 05:54:39;;;;;;;4.15;2.88;;;23.80;78.20;;;;;;5070806;28;20042;-71
2021/08/22 05:57:05;;;;;;;5.45;3.20;;;24.20;77.40;;;;;;5088859;28;20024;-70
2021/08/22 05:59:33;;;;;;;3.97;2.95;;;24.50;75.80;;;;;;5088185;28;20039;-71
2021/08/22 06:01:59;;;;;;;5.63;2.97;;;25.00;73.20;;;;;;5088577;28;20020;-70
2021/08/22 06:04:25;;;;;;;5.97;3.13;;;25.70;70.20;;;;;;5088969;28;20028;-68
2021/08/22 06:06:50;;;;;;;13.90;3.60;;;25.90;68.40;;;;;;5088734;28;20039;-68
2021/08/22 06:09:16;;;;;;;7.72;3.17;;;25.80;68.00;;;;;;5070992;28;20032;-69
2021/08/22 06:11:41;;;;;;;5.88;3.33;;;26.10;67.00;;;;;;5088597;28;20094;-69
2021/08/22 06:14:07;;;;;;;4.28;3.10;;;26.30;65.30;;;;;;5088640;28;20111;-69
2021/08/22 06:16:33;;;;;;;7.05;3.22;;;26.80;64.70;;;;;;5088557;28;20028;-69
2021/08/22 06:18:59;;;;;;;5.28;3.00;;;27.30;62.30;;;;;;5088202;28;20118;-69
2021/08/22 06:21:26;;;;;;;6.30;2.80;;;27.00;62.30;;;;;;5088520;28;20097;-68
2021/08/22 06:23:57;;;;;;;4.53;3.20;;;26.80;62.20;;;;;;5088658;28;20032;-70
2021/08/22 06:26:24;;;;;;;7.38;3.10;;;26.50;62.60;;;;;;5088314;28;20020;-71
2021/08/22 06:28:51;;;;;;;5.60;3.50;;;26.10;63.60;;;;;;5088256;28;20459;-71
2021/08/22 06:31:16;;;;;;;6.72;2.97;;;26.10;64.20;;;;;;5088503;28;20036;-71
2021/08/22 06:33:42;;;;;;;9.48;3.17;;;26.50;63.50;;;;;;5088339;28;20081;-71
2021/08/22 06:36:08;;;;;;;5.43;2.85;;;27.20;62.10;;;;;;5088378;28;20067;-68
2021/08/22 06:38:33;;;;;;;5.47;3.33;;;27.80;59.50;;;;;;5088356;28;20032;-69
2021/08/22 06:40:59;;;;;;;5.75;2.97;;;28.20;57.80;;;;;;5088150;28;20024;-69
2021/08/22 06:43:25;;;;;;;7.65;3.53;;;27.70;58.40;;;;;;5088442;28;20032;-67
2021/08/22 06:45:50;;;;;;;4.90;2.90;;;27.90;58.50;;;;;;5088384;28;20584;-69
2021/08/22 06:48:16;;;;;;;5.88;3.50;;;28.40;57.30;;;;;;5088238;28;20051;-69
2021/08/22 06:50:42;;;;;;;5.25;2.92;;;28.80;56.70;;;;;;5088270;28;20496;-70
2021/08/22 06:53:08;;;;;;;4.93;3.08;;;29.30;55.50;;;;;;5088227;28;20032;-69
2021/08/22 06:55:34;;;;;;;4.05;2.90;;;29.70;54.30;;;;;;5069951;28;20047;-69
2021/08/22 06:57:59;;;;;;;6.43;3.65;;;30.00;53.70;;;;;;5088134;28;20032;-68
2021/08/22 07:00:25;;;;;;;4.47;3.03;;;30.10;52.60;;;;;;5088226;28;20064;-69
2021/08/22 07:02:50;;;;;;;5.00;3.15;;;30.00;51.20;;;;;;5088073;28;20481;-69
2021/08/22 07:05:16;;;;;;;7.28;2.92;;;29.80;51.30;;;;;;5088118;28;20055;-68
2021/08/22 07:07:42;;;;;;;6.22;2.70;;;29.60;52.60;;;;;;5069947;28;20434;-69
2021/08/22 07:10:08;;;;;;;5.50;3.17;;;29.30;52.00;;;;;;5087785;28;20385;-69
2021/08/22 07:12:35;;;;;;;3.45;2.63;;;29.00;53.30;;;;;;5090525;28;20043;-69
2021/08/22 07:15:00;;;;;;;9.10;3.05;;;29.20;52.80;;;;;;5091799;28;20030;-69
2021/08/22 07:17:26;;;;;;;8.27;2.90;;;29.30;53.60;;;;;;5091807;28;20036;-69
2021/08/22 07:19:51;;;;;;;7.65;3.00;;;29.80;52.10;;;;;;5073377;28;20541;-69
2021/08/22 07:22:17;;;;;;;4.32;3.22;;;29.80;51.80;;;;;;5091849;28;20981;-69
2021/08/22 07:24:43;;;;;;;5.35;3.33;;;29.60;51.40;;;;;;5091771;28;20106;-68
2021/08/22 07:27:09;;;;;;;4.05;2.72;;;29.50;52.60;;;;;;5091751;28;20488;-68
2021/08/22 07:29:35;;;;;;;6.15;2.92;;;29.40;52.20;;;;;;5091708;28;20028;-68
2021/08/22 07:32:01;;;;;;;5.68;2.78;;;29.10;52.90;;;;;;5091486;28;20028;-68
2021/08/22 07:34:27;;;;;;;5.28;3.13;;;28.70;53.60;;;;;;5091508;28;20027;-68
2021/08/22 07:36:52;;;;;;;10.25;3.30;;;28.50;53.60;;;;;;5091440;28;20032;-70
2021/08/22 07:39:18;;;;;;;3.88;2.45;;;28.30;54.40;;;;;;5091459;28;20046;-71
2021/08/22 07:41:44;;;;;;;4.65;2.70;;;28.00;54.50;;;;;;5091597;28;20040;-70
2021/08/22 07:44:09;;;;;;;4.03;2.95;;;27.60;55.60;;;;;;5091354;28;20103;-71
2021/08/22 07:46:35;;;;;;;3.38;2.65;;;27.90;55.80;;;;;;5091418;28;20062;-69
2021/08/22 07:49:01;;;;;;;8.23;2.78;;;28.70;55.50;;;;;;5091200;28;20502;-68
2021/08/22 07:51:26;;;;;;;5.07;3.38;;;29.40;54.00;;;;;;5091341;28;20028;-69
2021/08/22 07:53:52;;;;;;;4.53;2.28;;;29.50;52.20;;;;;;5091100;28;20480;-69
2021/08/22 07:56:17;;;;;;;4.47;3.25;;;30.10;51.10;;;;;;5091193;28;20035;-69
2021/08/22 07:58:43;;;;;;;5.50;2.88;;;30.50;50.20;;;;;;5091053;28;20077;-69
2021/08/22 08:01:09;;;;;;;4.63;2.80;;;31.10;48.70;;;;;;5091141;28;20097;-69
2021/08/22 08:03:34;;;;;;;5.00;2.65;;;31.30;48.20;;;;;;5091013;28;20046;-69
2021/08/22 08:06:00;;;;;;;5.88;2.50;;;31.70;47.60;;;;;;5091077;28;20108;-68
2021/08/22 08:08:25;;;;;;;3.45;2.88;;;32.20;46.10;;;;;;5091028;28;20043;-70
2021/08/22 08:10:51;;;;;;;7.43;2.72;;;32.30;44.40;;;;;;5090923;28;20842;-70
2021/08/22 08:13:17;;;;;;;3.78;2.70;;;32.80;44.40;;;;;;5090986;28;20483;-70
2021/08/22 08:15:43;;;;;;;4.82;2.50;;;32.70;43.50;;;;;;5090674;28;20073;-68
2021/08/22 08:18:10;;;;;;;4.43;3.25;;;32.60;43.70;;;;;;5090369;28;20055;-69
2021/08/22 08:20:36;;;;;;;8.88;2.88;;;32.20;43.00;;;;;;5090844;28;20038;-69
2021/08/22 08:23:02;;;;;;;4.25;2.65;;;31.60;44.30;;;;;;5090163;28;20066;-68
2021/08/22 08:25:27;;;;;;;6.63;2.47;;;31.50;44.60;;;;;;5090868;28;20452;-69
2021/08/22 08:27:53;;;;;;;4.88;2.85;;;32.00;45.30;;;;;;5090882;28;20480;-70
2021/08/22 08:30:19;;;;;;;4.18;2.55;;;32.50;44.10;;;;;;5090636;28;20080;-69
2021/08/22 08:32:45;;;;;;;5.60;2.78;;;32.70;42.40;;;;;;5090372;28;20028;-70
2021/08/22 08:35:11;;;;;;;4.90;2.95;;;33.00;42.20;;;;;;5072236;28;20031;-70
2021/08/22 08:37:40;;;;;;;3.83;2.55;;;33.30;41.00;;;;;;5090326;28;20024;-70
2021/08/22 08:40:18;;;;;;;3.28;2.67;;;33.40;42.50;;;;;;5090266;28;20048;-69
2021/08/22 08:42:53;;;;;;;5.68;3.00;;;33.70;41.50;;;;;;5090081;28;20437;-69
2021/08/22 08:45:31;;;;;;;;;;;33.80;40.50;;;;;;5090719;28;20028;-69
2021/08/22 08:47:57;;;;;;;4.72;2.58;;;33.00;42.00;;;;;;5090562;28;19904;-70
2021/08/22 08:50:27;;;;;;;5.40;2.30;;;33.50;41.70;;;;;;5090248;28;20107;-70
2021/08/22 08:53:02;;;;;;;4.40;2.63;;;34.10;40.50;;;;;;5089905;28;20032;-70
2021/08/22 08:55:51;;;;;;;2.67;2.33;;;34.20;40.10;;;;;;5089931;28;20496;-70
2021/08/22 08:58:16;;;;;;;5.43;2.42;;;34.10;39.20;;;;;;5089914;28;20117;-70
2021/08/22 09:00:46;;;;;;;5.63;2.40;;;33.90;41.00;;;;;;5089916;28;20085;-70
2021/08/22 09:03:16;;;;;;;5.35;2.28;;;34.30;40.50;;;;;;5089287;28;20028;-69
2021/08/22 09:06:18;;;;;;;4.10;2.40;;;34.90;40.20;;;;;;5089699;28;20027;-70
2021/08/22 09:09:03;;;;;;;9.65;2.45;;;35.00;39.80;;;;;;5089519;28;20420;-70
2021/08/22 09:11:28;;;;;;;2.73;2.23;;;35.40;38.50;;;;;;5089694;28;20024;-69
2021/08/22 09:14:22;;;;;;;3.78;2.15;;;35.30;39.80;;;;;;5089795;28;20069;-69
2021/08/22 09:17:25;;;;;;;3.28;2.15;;;35.50;38.20;;;;;;5071028;28;20032;-69
2021/08/22 09:19:57;;;;;;;10.77;2.42;;;35.70;38.40;;;;;;5088978;28;20067;-69
2021/08/22 09:23:00;;;;;;;3.00;2.28;;;35.90;37.80;;;;;;5089004;28;20078;-68
2021/08/22 09:26:03;;;;;;;3.08;2.35;;;36.00;37.90;;;;;;5089148;28;20407;-69
2021/08/22 09:28:50;;;;;;;3.08;2.05;;;36.40;36.50;;;;;;5089221;28;20032;-70
2021/08/22 09:31:27;;;;;;;5.97;2.35;;;36.20;36.10;;;;;;5088944;28;20499;-68
2021/08/22 09:34:21;;;;;;;3.22;2.13;;;36.10;36.80;;;;;;5070711;28;20581;-68
2021/08/22 09:37:08;;;;;;;3.08;2.40;;;36.70;37.40;;;;;;5070291;28;20435;-69
2021/08/22 09:40:11;;;;;;;3.97;2.28;;;36.60;36.70;;;;;;5088937;28;20047;-69
2021/08/22 09:43:14;;;;;;;3.15;2.30;;;36.50;36.20;;;;;;5089027;28;20488;-69
2021/08/22 09:46:07;;;;;;;6.28;2.20;;;36.10;35.90;;;;;;5088936;28;20034;-67
2021/08/22 09:49:10;;;;;;;7.13;2.65;;;35.70;35.50;;;;;;5088888;28;20027;-68
2021/08/22 09:52:06;;;;;;;4.32;2.78;;;35.00;35.20;;;;;;5088960;28;20039;-67
2021/08/22 09:54:38;;;;;;;7.70;1.95;;;34.20;37.30;;;;;;5088670;28;20114;-69
2021/08/22 09:57:25;;;;;;;5.38;2.33;;;34.50;37.80;;;;;;5088720;28;20027;-69
2021/08/22 10:00:11;;;;;;;3.80;2.20;;;35.20;36.00;;;;;;5088848;28;20100;-69
2021/08/22 10:03:00;;;;;;;2.63;1.83;;;35.20;36.80;;;;;;5088799;28;20028;-68
2021/08/22 10:05:28;;;;;;;2.28;1.42;;;34.80;37.60;;;;;;5070368;28;20032;-68
2021/08/22 10:08:03;;;;;;;2.53;1.58;;;34.50;36.90;;;;;;5088694;28;20058;-69
2021/08/22 10:10:34;;;;;;;5.93;1.50;;;34.00;37.10;;;;;;5088407;28;20519;-70
2021/08/22 10:13:00;;;;;;;2.67;1.77;;;33.50;37.80;;;;;;5088620;28;20032;-70
2021/08/22 10:15:25;;;;;;;2.88;1.83;;;33.10;38.60;;;;;;5088415;28;20032;-70
2021/08/22 10:17:51;;;;;;;5.07;2.10;;;33.30;39.00;;;;;;5088550;28;20139;-70
2021/08/22 10:20:20;;;;;;;6.93;2.08;;;33.60;38.80;;;;;;5088305;28;20059;-69
2021/08/22 10:22:51;;;;;;;3.78;2.03;;;33.50;39.00;;;;;;5070199;28;20484;-68
2021/08/22 10:25:47;;;;;;;3.47;1.92;;;33.40;37.20;;;;;;5088536;28;20488;-69
2021/08/22 10:28:12;;;;;;;7.45;2.30;;;32.90;39.00;;;;;;5088467;28;20570;-69
2021/08/22 10:30:42;;;;;;;5.00;2.05;;;32.90;38.90;;;;;;5088476;28;20032;-68
2021/08/22 10:33:09;;;;;;;2.67;1.90;;;32.90;39.60;;;;;;5088200;28;20028;-69
2021/08/22 10:35:35;;;;;;;7.03;1.92;;;32.70;39.40;;;;;;5088434;28;20028;-70
2021/08/22 10:38:23;;;;;;;3.10;2.03;;;32.40;40.30;;;;;;5088476;28;20085;-68
2021/08/22 10:40:50;;;;;;;2.85;1.60;;;32.40;40.40;;;;;;5088226;28;20038;-68
2021/08/22 10:43:17;;;;;;;5.65;2.58;;;32.20;40.10;;;;;;5088385;28;20712;-69
2021/08/22 10:45:44;;;;;;;3.97;2.13;;;31.90;40.80;;;;;;5088244;28;20020;-69
2021/08/22 10:48:24;;;;;;;5.93;1.73;;;31.90;39.90;;;;;;5073609;28;20475;-68
2021/08/22 10:50:59;;;;;;;2.45;1.52;;;31.70;41.10;;;;;;5091773;28;20117;-69
2021/08/22 10:53:29;;;;;;;2.55;1.88;;;31.50;41.10;;;;;;5091517;28;20458;-68
2021/08/22 10:55:56;;;;;;;3.53;1.90;;;31.50;41.50;;;;;;5073358;28;20051;-69
2021/08/22 10:59:01;;;;;;;2.45;1.70;;;31.60;41.40;;;;;;5091306;28;20119;-69
2021/08/22 11:01:31;;;;;;;7.75;2.03;;;31.60;41.40;;;;;;5091552;28;20052;-68
2021/08/22 11:04:13;;;;;;;2.05;1.63;;;31.60;41.60;;;;;;5090867;28;20047;-69
2021/08/22 11:06:53;;;;;;;5.53;1.70;;;31.80;41.10;;;;;;5091333;28;20051;-69
2021/08/22 11:09:45;;;;;;;4.28;1.52;;;31.90;40.40;;;;;;5089590;28;20036;-68
2021/08/22 11:12:32;;;;;;;4.25;2.00;;;31.90;40.30;;;;;;5089918;28;20604;-69
2021/08/22 11:15:00;;;;;;;3.05;2.00;;;31.70;40.20;;;;;;5091075;28;20043;-69
2021/08/22 11:17:27;;;;;;;2.08;1.30;;;31.60;40.60;;;;;;5091250;28;20404;-69
2021/08/22 11:19:53;;;;;;;5.18;1.98;;;31.60;40.50;;;;;;5091126;28;20054;-68
2021/08/22 11:22:27;;;;;;;3.47;1.95;;;31.60;40.50;;;;;;5087788;28;20043;-69
2021/08/22 11:24:54;;;;;;;5.45;1.90;;;31.50;40.30;;;;;;5088628;28;20396;-69
2021/08/22 11:27:26;;;;;;;3.05;2.20;;;31.40;40.90;;;;;;5074883;28;20032;-68
2021/08/22 11:29:53;;;;;;;7.90;1.98;;;31.50;40.70;;;;;;5091086;28;20024;-70
2021/08/22 11:32:19;;;;;;;3.50;1.75;;;31.60;41.20;;;;;;5090533;28;20044;-69
2021/08/22 11:34:45;;;;;;;4.28;2.00;;;31.60;41.50;;;;;;5073188;28;20031;-69
2021/08/22 11:37:15;;;;;;;5.80;2.00;;;31.80;41.70;;;;;;5091471;28;20614;-69
2021/08/22 11:39:41;;;;;;;4.07;2.20;;;31.90;40.90;;;;;;5073458;28;20412;-69
2021/08/22 11:42:08;;;;;;;5.72;2.03;;;32.00;40.50;;;;;;5091479;28;20031;-71
2021/08/22 11:44:33;;;;;;;2.45;1.73;;;32.00;39.40;;;;;;5091784;28;20622;-69
2021/08/22 11:46:59;;;;;;;3.47;2.20;;;31.80;40.60;;;;;;5073101;28;20131;-69
2021/08/22 11:49:25;;;;;;;4.68;1.70;;;31.80;41.50;;;;;;5091184;28;20058;-69
2021/08/22 11:51:53;;;;;;;3.38;2.05;;;31.90;41.60;;;;;;5091528;28;20035;-70
2021/08/22 11:54:20;;;;;;;2.72;1.90;;;32.00;42.10;;;;;;5091423;28;20020;-69
2021/08/22 11:56:46;;;;;;;3.60;1.83;;;31.90;42.00;;;;;;5091367;28;20020;-69
2021/08/22 11:59:29;;;;;;;3.17;1.50;;;31.60;41.80;;;;;;5071508;28;20115;-68
2021/08/22 12:02:19;;;;;;;2.50;1.60;;;31.60;40.80;;;;;;5091205;28;20107;-69
2021/08/22 12:04:45;;;;;;;5.88;2.30;;;31.50;40.50;;;;;;5090962;28;20032;-69
2021/08/22 12:07:11;;;;;;;5.18;1.75;;;31.30;39.60;;;;;;5091207;28;20020;-69
2021/08/22 12:09:37;;;;;;;3.40;1.90;;;31.20;40.50;;;;;;5091110;28;20800;-69
2021/08/22 12:12:17;;;;;;;3.67;2.00;;;31.00;40.80;;;;;;5091496;28;20028;-69
2021/08/22 12:14:43;;;;;;;2.88;1.80;;;30.90;41.90;;;;;;5090941;28;20040;-69
2021/08/22 12:17:11;;;;;;;2.35;1.27;;;31.10;42.40;;;;;;5091361;28;20735;-69
2021/08/22 12:19:37;;;;;;;6.97;1.67;;;31.10;41.70;;;;;;5090798;28;20086;-69
2021/08/22 12:22:09;;;;;;;4.85;1.75;;;31.10;42.80;;;;;;5090849;28;20055;-70
2021/08/22 12:24:35;;;;;;;3.45;1.85;;;31.20;42.80;;;;;;5090815;28;20056;-69
2021/08/22 12:27:02;;;;;;;3.05;1.60;;;31.10;42.70;;;;;;5090736;28;20051;-69
2021/08/22 12:29:33;;;;;;;2.90;2.00;;;31.00;42.80;;;;;;5072552;28;20115;-69
2021/08/22 12:32:17;;;;;;;8.07;1.92;;;31.00;42.70;;;;;;5072542;28;20066;-69
2021/08/22 12:34:43;;;;;;;7.05;2.03;;;30.90;42.90;;;;;;5072372;28;20028;-70
2021/08/22 12:37:14;;;;;;;3.85;2.10;;;30.90;42.50;;;;;;5090876;28;20028;-70
2021/08/22 12:39:41;;;;;;;4.78;2.20;;;30.90;42.00;;;;;;5090254;28;20105;-70
2021/08/22 12:42:06;;;;;;;3.38;1.80;;;30.80;41.50;;;;;;5090552;28;20027;-70
2021/08/22 12:44:34;;;;;;;6.65;1.70;;;30.60;41.50;;;;;;5090276;28;20036;-70
2021/08/22 12:47:02;;;;;;;2.38;1.60;;;30.60;42.20;;;;;;5090457;28;20024;-70
2021/08/22 12:49:29;;;;;;;2.10;1.70;;;30.60;42.80;;;;;;5091081;28;20027;-70
2021/08/22 12:52:01;;;;;;;4.45;1.67;;;30.70;42.30;;;;;;5090249;28;20032;-70
2021/08/22 12:54:28;;;;;;;6.20;1.90;;;30.90;42.50;;;;;;5090313;28;20059;-70
2021/08/22 12:56:55;;;;;;;4.03;1.73;;;31.00;42.30;;;;;;5090128;28;20043;-70
2021/08/22 12:59:21;;;;;;;4.35;1.92;;;31.00;43.00;;;;;;5089951;28;20040;-70